Flight Track Log - Related Links

Times and Time Zones

All times are in EDT time to prevent confusion due to time zone crossing. See the N108RJ flight status page for this flight to view local times or setup timezone preferences in your user account.

Time Position Orientation Groundspeed Altitude Reporting Facility
EDT Latitude Longitude Course Direction KTS MPH feet Rate Location/Type
Tue 07:56:17 PM 46.3322 -117.0197 254° West 174 200 6,100  Level Seattle Center
Tue 07:57:00 PM 46.2843 -117.5466 257° West  Level Estimated
Tue 07:57:18 PM 46.3214 -117.0875 257° West 175 201 8,100  Level Seattle Center
Tue 07:58:00 PM 46.2691 -117.6349 257° West  Level Estimated
Tue 07:58:18 PM 46.3119 -117.1517 258° West 171 197 9,600  Level Seattle Center
Tue 07:59:00 PM 46.2539 -117.7233 256° West  Level FlightAware Approximate
Tue 07:59:19 PM 46.3039 -117.2217 261° West 172 198 11,500  Level Seattle Center
Tue 08:00:00 PM 46.2385 -117.8116 261° West  Level Estimated
Tue 08:00:20 PM 46.2933 -117.2886 257° West 172 198 13,500  Level Seattle Center
Tue 08:01:21 PM 46.2839 -117.3594 259° West 177 204 15,400 1,869 Climbing Seattle Center
Tue 08:02:22 PM 46.2719 -117.4297 256° West 180 207 17,300 1,686 Climbing Seattle Center
Tue 08:03:22 PM 46.2611 -117.5000 257° West 179 206 18,800 1,636 Climbing Seattle Center
Tue 08:04:23 PM 46.2517 -117.5728 259° West 183 211 20,600 1,672 Climbing Seattle Center
Tue 08:05:24 PM 46.2392 -117.6428 256° West 181 208 22,200 1,623 Climbing Seattle Center
Tue 08:06:25 PM 46.2297 -117.7117 259° West 176 203 23,900 885 Climbing Seattle Center
Tue 08:07:26 PM 46.2161 -117.7836 255° West 185 213 24,000 50 Climbing Seattle Center
Tue 08:08:26 PM 46.2042 -117.8706 259° West 215 247 24,000  Level Seattle Center
Tue 08:09:27 PM 46.1892 -117.9589 256° West 225 259 24,000  Level Seattle Center
Tue 08:10:28 PM 46.1731 -118.0678 258° West 231 266 24,000  Level Seattle Center
Tue 08:11:29 PM 46.1578 -118.1597 257° West 234 269 24,000  Level Seattle Center
Tue 08:12:30 PM 46.1431 -118.2533 257° West 240 276 24,000  Level Seattle Center
Tue 08:13:31 PM 46.1286 -118.3469 257° West 240 276 24,000  Level Seattle Center
Tue 08:14:32 PM 46.1128 -118.4397 256° West 239 275 24,000  Level Seattle Center
Tue 08:15:32 PM 46.0994 -118.5233 257° West 238 274 24,000  Level Seattle Center
Tue 08:16:33 PM 46.0844 -118.6164 257° West 238 274 24,000  Level Seattle Center
Tue 08:17:34 PM 46.0667 -118.7269 257° West 237 273 24,000  Level Seattle Center
Tue 08:18:35 PM 46.0506 -118.8208 256° West 241 277 24,000  Level Seattle Center
Tue 08:19:36 PM 46.0353 -118.9111 256° West 235 270 24,000  Level Seattle Center
Tue 08:20:37 PM 46.0200 -119.0036 257° West 238 274 24,000  Level Seattle Center
Tue 08:21:38 PM 46.0044 -119.0950 256° West 237 273 24,000  Level Seattle Center
Tue 08:22:39 PM 45.9883 -119.1881 256° West 240 276 24,000  Level Seattle Center
Tue 08:23:39 PM 45.9722 -119.2792 256° West 237 273 24,000  Level Seattle Center
Tue 08:24:40 PM 45.9569 -119.3711 257° West 237 273 24,000  Level Seattle Center
Tue 08:25:41 PM 45.9414 -119.4650 257° West 241 277 24,000  Level Seattle Center
Tue 08:26:42 PM 45.9250 -119.5572 256° West 241 277 24,000  Level Seattle Center
Tue 08:27:43 PM 45.9097 -119.6508 257° West 241 277 24,000  Level Seattle Center
Tue 08:28:00 PM 45.9067 -119.6719 257° West  Level FlightAware Approximate
Tue 08:28:44 PM 45.8931 -119.7461 256° West 246 283 24,000  Level Seattle Center
Tue 08:29:45 PM 45.8758 -119.8417 256° West 248 285 24,000  Level Seattle Center
Tue 08:30:46 PM 45.8553 -119.9583 256° West 251 289 24,000  Level Seattle Center
Tue 08:31:47 PM 45.8378 -120.0597 256° West 260 299 24,000  Level Seattle Center
Tue 08:32:48 PM 45.8189 -120.1600 255° West 262 302 24,000  Level Seattle Center
Tue 08:33:49 PM 45.8014 -120.2583 256° West 258 297 24,000  Level Seattle Center
Tue 08:34:49 PM 45.7825 -120.3594 255° West 262 302 24,000  Level Seattle Center
Tue 08:35:50 PM 45.7647 -120.4628 256° West 267 307 24,000  Level Seattle Center
Tue 08:36:51 PM 45.7436 -120.5653 254° West 269 310 24,000  Level Seattle Center
Tue 08:37:52 PM 45.6992 -120.6539 234° Southwest 273 314 24,000  Level Seattle Center
Tue 08:38:53 PM 45.6558 -120.7442 236° Southwest 277 319 24,000  Level Seattle Center
Tue 08:39:54 PM 45.6200 -120.8403 242° Southwest 278 320 24,000  Level Seattle Center
Tue 08:40:55 PM 45.6097 -120.9689 264° West 277 319 24,000 -443 Level Seattle Center
Tue 08:41:56 PM 45.5978 -121.0786 261° West 281 323 23,100 -689 Descending Seattle Center
Tue 08:42:57 PM 45.5861 -121.1878 261° West 282 325 22,600 -1,033 Descending Seattle Center
Tue 08:43:58 PM 45.5739 -121.2964 261° West 281 323 21,000 -1,525 Descending Seattle Center
Tue 08:44:59 PM 45.5625 -121.4061 262° West 282 325 19,500 -1,568 Descending Seattle Center
Tue 08:45:49 PM 45.5522 -121.5025 261° West 280 322 18,100 -1,672 Descending Seattle Center
Tue 08:46:00 PM 45.5514 -121.5172 265° West 284 327 17,800 -1,500 Descending Seattle Center
Tue 08:47:01 PM 45.5372 -121.6242 259° West 278 320 16,300 -837 Descending Seattle Center
Tue 08:48:09 PM 45.5311 -121.7436 266° West 248 285 16,000 -639 Descending Seattle Center
Tue 08:49:03 PM 45.5078 -121.8189 246° West 269 310 15,000 -1,309 Descending Seattle Center
Tue 08:49:04 PM 45.5056 -121.8286 252° West 271 312 14,800 -1,672 Descending Seattle Center
Tue 08:50:04 PM 45.4697 -121.9097 238° Southwest 271 312 13,300 -1,727 Descending Seattle Center
Tue 08:50:10 PM 45.4603 -121.9342 241° Southwest 274 315 12,900 -1,869 Descending Seattle Center
Tue 08:51:05 PM 45.4217 -122.0186 237° Southwest 280 322 11,400 -1,672 Descending Seattle Center
Tue 08:51:11 PM 45.4197 -122.0314 258° West 278 320 11,200 -1,475 Descending Seattle Center
Tue 08:52:06 PM 45.3850 -122.1106 238° Southwest 274 315 9,900 -991 Descending Seattle Center
Tue 08:53:06 PM 45.3517 -122.1947 241° Southwest 254 292 9,300 -740 Descending Seattle Center
Tue 08:53:19 PM 45.3450 -122.2164 246° West 231 266 9,000 -1,574 Descending Seattle Center
Tue 08:54:07 PM 45.3194 -122.2778 239° Southwest 244 281 7,700 -1,745 Descending Seattle Center
Tue 08:54:14 PM 45.3139 -122.2969 248° West 251 289 7,400 -1,672 Descending Seattle Center
Tue 08:55:08 PM 45.2975 -122.3675 252° West 243 280 6,000 -1,672 Descending Seattle Center
Tue 08:55:15 PM 45.2975 -122.3867 270° West 231 266 5,700 -1,967 Descending Seattle Center
Tue 08:56:09 PM 45.2897 -122.4761 263° West 243 280 4,000 -1,409 Descending Seattle Center
Tue 08:57:10 PM 45.2794 -122.5569 260° West 242 278 3,000 -822 Descending Seattle Center
Tue 08:57:22 PM 45.2781 -122.5789 265° West 215 247 3,000  Level Seattle Center
Tue 08:58:11 PM 45.2717 -122.6411 262° West 239 275 3,000  Level Seattle Center

Login

Don't have an account? Register now (free) for customized features, flight alerts, and more!